Time;durP1;ratioP1;P1;durP2;ratioP2;P2;SDS_P1;SDS_P2;PMS_P1;PMS_P2;Temp;Humidity;BMP_temperature;BMP_pressure;BME280_temperature;BME280_humidity;BME280_pressure;Samples;Min_cycle;Max_cycle;Signal;HPM_P1;HPM_P2
2023/08/09 00:00:04;;;;;;;;;;;;;;;-144.99;nan;52484.78;5029821;28;20230;-71
2023/08/09 00:02:30;;;;;;;;;;;;;;;-144.99;nan;52509.25;5030070;28;19942;-73
2023/08/09 00:04:57;;;;;;;;;;;;;;;-144.99;nan;52468.47;5033697;28;19949;-72
2023/08/09 00:07:23;;;;;;;;;;;;;;;-144.99;nan;52480.72;5030151;28;19948;-72
2023/08/09 00:09:50;;;;;;;;;;;;;;;-144.99;nan;52476.63;5025782;28;20012;-72
2023/08/09 00:12:16;;;;;;;;;;;;;;;-144.99;nan;52423.63;5029096;28;19947;-72
2023/08/09 00:14:44;;;;;;;;;;;;;;;-144.99;nan;52452.16;5026618;28;19997;-72
2023/08/09 00:17:10;;;;;;;;;;;;;;;-144.99;nan;52480.72;5031319;28;19963;-71
2023/08/09 00:19:37;;;;;;;;;;;;;;;-144.99;nan;52437.91;5030309;28;19998;-72
2023/08/09 00:22:03;;;;;;;;;;;;;;;-144.99;nan;52470.50;5034645;28;20389;-71
2023/08/09 00:24:30;;;;;;;;;;;;;;;-144.99;nan;52484.78;5027410;28;19972;-72
2023/08/09 00:26:56;;;;;;;;;;;;;;;-144.99;nan;52435.88;5037884;28;19935;-73
2023/08/09 00:29:23;;;;;;;;;;;;;;;-144.99;nan;52486.81;5031046;28;19947;-71
2023/08/09 00:31:51;;;;;;;;;;;;;;;-144.99;nan;52431.78;5036918;28;20029;-72
2023/08/09 00:34:17;;;;;;;;;;;;;;;-144.99;nan;52468.47;5029313;28;19952;-72
2023/08/09 00:36:44;;;;;;;;;;;;;;;-144.99;nan;52464.41;5012864;28;19975;-72
2023/08/09 00:39:10;;;;;;;;;;;;;;;-144.99;nan;52503.13;5013844;28;20045;-71
2023/08/09 00:41:37;;;;;;;;;;;;;;;-144.99;nan;52460.31;5020339;28;19970;-72
2023/08/09 00:44:03;;;;;;;;;;;;;;;-144.99;nan;52448.09;5017284;28;19949;-71
2023/08/09 00:46:30;;;;;;;;;;;;;;;-144.99;nan;52452.16;5016363;28;19990;-72
2023/08/09 00:48:58;;;;;;;;;;;;;;;-144.99;nan;52454.22;5016537;28;19990;-72
2023/08/09 00:51:24;;;;;;;;;;;;;;;-144.99;nan;52444.03;5014086;28;19963;-72
2023/08/09 00:53:51;;;;;;;;;;;;;;;-144.99;nan;52458.28;5011250;28;19971;-71
2023/08/09 00:56:17;;;;;;;;;;;;;;;-144.99;nan;52474.59;5014398;28;20056;-71
2023/08/09 00:58:44;;;;;;;;;;;;;;;-144.99;nan;52492.94;5015733;28;20049;-70
2023/08/09 01:01:10;;;;;;;;;;;;;;;-144.99;nan;52423.63;5016781;28;20522;-72
2023/08/09 01:03:37;;;;;;;;;;;;;;;-144.99;nan;52472.56;5015293;28;20669;-71
2023/08/09 01:06:08;;;;;;;;;;;;;;;-144.99;nan;52435.88;5013550;28;19988;-72
2023/08/09 01:08:37;;;;;;;;;;;;;;;-144.99;nan;52468.47;5015353;28;19940;-72
2023/08/09 01:11:09;;;;;;;;;;;;;;;-144.99;nan;52458.28;5009648;28;19972;-74
2023/08/09 01:13:37;;;;;;;;;;;;;;;-144.99;nan;52427.72;5022240;28;20055;-73
2023/08/09 01:16:05;;;;;;;;;;;;;;;-144.99;nan;52478.66;5015065;28;20407;-73
2023/08/09 01:18:31;;;;;;;;;;;;;;;-144.99;nan;52437.91;5011539;28;20470;-73
2023/08/09 01:21:00;;;;;;;;;;;;;;;-144.99;nan;52458.28;5011951;28;19956;-73
2023/08/09 01:23:31;;;;;;;;;;;;;;;-144.99;nan;52456.25;5012678;28;20039;-73
2023/08/09 01:25:58;;;;;;;;;;;;;;;-144.99;nan;52405.28;5012949;28;19963;-73
2023/08/09 01:28:24;;;;;;;;;;;;;;;-144.99;nan;52427.72;5011920;28;19949;-73
2023/08/09 01:30:51;;;;;;;;;;;;;;;-144.99;nan;52456.25;5011835;28;19981;-73
2023/08/09 01:33:17;;;;;;;;;;;;;;;-144.99;nan;52490.91;5010341;28;20931;-73
2023/08/09 01:35:48;;;;;;;;;;;;;;;-144.99;nan;52494.97;5010963;28;19951;-73
2023/08/09 01:38:19;;;;;;;;;;;;;;;-144.99;nan;52452.16;5011131;28;19954;-73
2023/08/09 01:40:48;;;;;;;;;;;;;;;-144.99;nan;52464.41;5014011;28;20017;-72
2023/08/09 01:43:15;;;;;;;;;;;;;;;-144.99;nan;52472.56;5012961;28;19951;-73
2023/08/09 01:45:41;;;;;;;;;;;;;;;-144.99;nan;52448.09;5011259;28;20308;-73
2023/08/09 01:48:08;;;;;;;;;;;;;;;-144.99;nan;52476.63;5010224;28;19945;-73
2023/08/09 01:50:35;;;;;;;;;;;;;;;-144.99;nan;52458.28;5014459;28;19966;-72
2023/08/09 01:53:02;;;;;;;;;;;;;;;-144.99;nan;52488.84;5009556;28;19943;-72
2023/08/09 01:55:28;;;;;;;;;;;;;;;-144.99;nan;52484.78;5008886;28;19948;-72
2023/08/09 01:57:56;;;;;;;;;;;;;;;-144.99;nan;52480.72;5011095;28;20005;-72
2023/08/09 02:00:23;;;;;;;;;;;;;;;-144.99;nan;52427.72;5011347;28;19998;-72
2023/08/09 02:02:50;;;;;;;;;;;;;;;-144.99;nan;52480.72;5012530;28;19945;-72
2023/08/09 02:05:16;;;;;;;;;;;;;;;-144.99;nan;52427.72;5014382;28;19952;-73
2023/08/09 02:07:43;;;;;;;;;;;;;;;-144.99;nan;52452.16;5009897;28;20065;-72
2023/08/09 02:10:10;;;;;;;;;;;;;;;-144.99;nan;52474.59;5010209;28;20521;-72
2023/08/09 02:12:37;;;;;;;;;;;;;;;-144.99;nan;52501.09;5010878;28;19948;-72
2023/08/09 02:15:06;;;;;;;;;;;;;;;-144.99;nan;52460.31;5009788;28;20012;-73
2023/08/09 02:17:32;;;;;;;;;;;;;;;-144.99;nan;52484.78;5011836;28;19964;-72
2023/08/09 02:19:59;;;;;;;;;;;;;;;-144.99;nan;52460.31;5010395;28;19973;-72
2023/08/09 02:22:26;;;;;;;;;;;;;;;-144.99;nan;52439.94;5009059;28;19955;-72
2023/08/09 02:24:53;;;;;;;;;;;;;;;-144.99;nan;52444.03;5011212;28;19947;-73
2023/08/09 02:27:19;;;;;;;;;;;;;;;-144.99;nan;52431.78;5010353;28;20361;-72
2023/08/09 02:29:46;;;;;;;;;;;;;;;-144.99;nan;52480.72;5015850;28;20704;-72
2023/08/09 02:32:15;;;;;;;;;;;;;;;-144.99;nan;52456.25;5017825;28;19976;-72
2023/08/09 02:34:41;;;;;;;;;;;;;;;-144.99;nan;52484.78;5016388;28;20300;-72
2023/08/09 02:37:07;;;;;;;;;;;;;;;-144.99;nan;52452.16;5015387;28;19963;-74
2023/08/09 02:39:35;;;;;;;;;;;;;;;-144.99;nan;52490.91;5014631;28;19948;-72
2023/08/09 02:42:01;;;;;;;;;;;;;;;-144.99;nan;52468.47;5016914;28;19955;-72
2023/08/09 02:44:28;;;;;;;;;;;;;;;-144.99;nan;52462.34;5017814;28;19981;-72
2023/08/09 02:46:54;;;;;;;;;;;;;;;-144.99;nan;52452.16;5014518;28;19976;-73
2023/08/09 02:49:22;;;;;;;;;;;;;;;-144.99;nan;52476.63;5014452;28;19949;-73
2023/08/09 02:51:48;;;;;;;;;;;;;;;-144.99;nan;52448.09;5013117;28;20065;-73
2023/08/09 02:54:15;;;;;;;;;;;;;;;-144.99;nan;52460.31;5012071;28;20406;-73
2023/08/09 02:56:41;;;;;;;;;;;;;;;-144.99;nan;52460.31;5012995;28;19969;-73
2023/08/09 02:59:07;;;;;;;;;;;;;;;-144.99;nan;52464.41;5016771;28;20038;-72
2023/08/09 03:01:34;;;;;;;;;;;;;;;-144.99;nan;52439.94;5017494;28;20905;-72
2023/08/09 03:04:00;;;;;;;;;;;;;;;-144.99;nan;52468.47;5016494;28;19959;-72
2023/08/09 03:06:28;;;;;;;;;;;;;;;-144.99;nan;52497.00;5017571;28;19981;-72
2023/08/09 03:08:55;;;;;;;;;;;;;;;-144.99;nan;52492.94;5017891;28;19994;-72
2023/08/09 03:11:22;;;;;;;;;;;;;;;-144.99;nan;52464.41;5011288;28;20049;-72
2023/08/09 03:13:49;;;;;;;;;;;;;;;-144.99;nan;52431.78;5006862;28;20328;-73
2023/08/09 03:16:15;;;;;;;;;;;;;;;-144.99;nan;52448.09;5015308;28;20042;-72
2023/08/09 03:18:42;;;;;;;;;;;;;;;-144.99;nan;52439.94;5005295;28;19950;-73
2023/08/09 03:21:08;;;;;;;;;;;;;;;-144.99;nan;52452.16;5011904;28;19974;-74
2023/08/09 03:23:37;;;;;;;;;;;;;;;-144.99;nan;52427.72;5012314;28;19953;-73
2023/08/09 03:26:03;;;;;;;;;;;;;;;-144.99;nan;52456.25;5017370;28;19982;-73
2023/08/09 03:28:30;;;;;;;;;;;;;;;-144.99;nan;52460.31;5005571;28;19950;-73
2023/08/09 03:30:56;;;;;;;;;;;;;;;-144.99;nan;52423.63;5015269;28;19998;-72
2023/08/09 03:33:23;;;;;;;;;;;;;;;-144.99;nan;52470.50;5017866;28;19945;-71
2023/08/09 03:35:49;;;;;;;;;;;;;;;-144.99;nan;52435.88;5012433;28;20041;-72
2023/08/09 03:38:16;;;;;;;;;;;;;;;-144.99;nan;52439.94;5013938;28;20288;-72
2023/08/09 03:40:44;;;;;;;;;;;;;;;-144.99;nan;52464.41;5013112;28;20505;-72
2023/08/09 03:43:10;;;;;;;;;;;;;;;-144.99;nan;52460.31;5017939;28;20049;-71
2023/08/09 03:45:36;;;;;;;;;;;;;;;-144.99;nan;52486.81;5016131;28;20484;-73
2023/08/09 03:48:04;;;;;;;;;;;;;;;-144.99;nan;52472.56;5019266;28;19947;-73
2023/08/09 03:50:30;;;;;;;;;;;;;;;-144.99;nan;52468.47;5038488;28;19964;-74
2023/08/09 03:52:56;;;;;;;;;;;;;;;-144.99;nan;52464.41;5034399;28;19944;-74
2023/08/09 03:55:23;;;;;;;;;;;;;;;-144.99;nan;52444.03;5032103;28;19953;-73
2023/08/09 03:57:52;;;;;;;;;;;;;;;-144.99;nan;52458.28;5032003;28;20001;-74
2023/08/09 04:00:22;;;;;;;;;;;;;;;-144.99;nan;52501.09;5031380;28;20038;-74
2023/08/09 04:02:49;;;;;;;;;;;;;;;-144.99;nan;52458.28;5041303;23;19960;-67
2023/08/09 04:05:16;;;;;;;;;;;;;;;-144.99;nan;52448.09;5002166;28;20660;-67
2023/08/09 04:07:43;;;;;;;;;;;;;;;-144.99;nan;52464.41;5000926;28;19955;-66
2023/08/09 04:10:10;;;;;;;;;;;;;;;-144.99;nan;52444.03;4998257;28;19960;-68
2023/08/09 04:12:37;;;;;;;;;;;;;;;-144.99;nan;52460.31;4998275;28;20061;-67
2023/08/09 04:15:06;;;;;;;;;;;;;;;-144.99;nan;52454.22;4998601;28;20278;-66
2023/08/09 04:17:32;;;;;;;;;;;;;;;-144.99;nan;52435.88;5000130;28;20510;-66
2023/08/09 04:19:59;;;;;;;;;;;;;;;-144.99;nan;52423.63;5000627;28;19950;-66
2023/08/09 04:22:25;;;;;;;;;;;;;;;-144.99;nan;52439.94;5002126;28;20078;-66
2023/08/09 04:24:52;;;;;;;;;;;;;;;-144.99;nan;52482.75;5000062;28;19952;-61
2023/08/09 04:27:18;;;;;;;;;;;;;;;-144.99;nan;52464.41;5001279;28;19951;-68
2023/08/09 04:29:45;;;;;;;;;;;;;;;-144.99;nan;52452.16;5002105;28;20384;-67
2023/08/09 04:32:13;;;;;;;;;;;;;;;-144.99;nan;52444.03;5001879;28;20003;-68
2023/08/09 04:34:40;;;;;;;;;;;;;;;-144.99;nan;52452.16;4998910;28;19960;-69
2023/08/09 04:37:07;;;;;;;;;;;;;;;-144.99;nan;52435.88;5000637;28;20052;-70
2023/08/09 04:39:33;;;;;;;;;;;;;;;-144.99;nan;52435.88;5002905;28;20210;-69
2023/08/09 04:42:00;;;;;;;;;;;;;;;-144.99;nan;52448.09;5001276;28;20014;-70
2023/08/09 04:44:27;;;;;;;;;;;;;;;-144.99;nan;52439.94;5002577;28;19944;-70
2023/08/09 04:46:53;;;;;;;;;;;;;;;-144.99;nan;52444.03;4982543;28;20002;-69
2023/08/09 04:49:21;;;;;;;;;;;;;;;-144.99;nan;52435.88;5001148;28;19945;-69
2023/08/09 04:51:47;;;;;;;;;;;;;;;-144.99;nan;52435.88;5000636;28;19963;-70
2023/08/09 04:54:14;;;;;;;;;;;;;;;-144.99;nan;52468.47;5003563;28;19961;-69
2023/08/09 04:56:40;;;;;;;;;;;;;;;-144.99;nan;52419.56;5005223;28;19997;-69
2023/08/09 04:59:07;;;;;;;;;;;;;;;-144.99;nan;52444.03;5003414;28;19994;-68
2023/08/09 05:01:33;;;;;;;;;;;;;;;-144.99;nan;52462.34;5009702;28;19969;-77
2023/08/09 05:04:00;;;;;;;;;;;;;;;-144.99;nan;52439.94;5003041;28;20232;-76
2023/08/09 05:06:28;;;;;;;;;;;;;;;-144.99;nan;52441.97;5003935;28;20128;-78
2023/08/09 05:08:54;;;;;;;;;;;;;;;-144.99;nan;52448.09;5010168;28;19998;-77
2023/08/09 05:11:21;;;;;;;;;;;;;;;-144.99;nan;52456.25;5011990;28;19977;-74
2023/08/09 05:13:47;;;;;;;;;;;;;;;-144.99;nan;52423.63;5007346;28;19938;-74
2023/08/09 05:16:14;;;;;;;;;;;;;;;-144.99;nan;52413.44;4660997;28;10000436;-75
2023/08/09 05:18:40;;;;;;;;;;;;;;;-144.99;nan;52439.94;5006164;28;19964;-72
2023/08/09 05:21:07;;;;;;;;;;;;;;;-144.99;nan;52433.81;5003862;28;19967;-72
2023/08/09 05:23:35;;;;;;;;;;;;;;;-144.99;nan;52444.03;5002694;28;19950;-72
2023/08/09 05:26:02;;;;;;;;;;;;;;;-144.99;nan;52431.78;5002212;28;19987;-71
2023/08/09 05:28:28;;;;;;;;;;;;;;;-144.99;nan;52407.31;5003667;28;20058;-71
2023/08/09 05:30:55;;;;;;;;;;;;;;;-144.99;nan;52378.78;5002298;28;19991;-71
2023/08/09 05:33:21;;;;;;;;;;;;;;;-144.99;nan;52456.25;5007213;28;19956;-70
2023/08/09 05:35:47;;;;;;;;;;;;;;;-144.99;nan;52423.63;5005834;28;19957;-72
2023/08/09 05:38:14;;;;;;;;;;;;;;;-144.99;nan;52382.88;5006898;28;19973;-73
2023/08/09 05:40:42;;;;;;;;;;;;;;;-144.99;nan;52452.16;5003924;28;20001;-71
2023/08/09 05:43:08;;;;;;;;;;;;;;;-144.99;nan;52423.63;5005796;28;20063;-71
2023/08/09 05:45:35;;;;;;;;;;;;;;;-144.99;nan;52407.31;5016577;28;20016;-70
2023/08/09 05:48:01;;;;;;;;;;;;;;;-144.99;nan;52415.47;5020108;28;19999;-71
2023/08/09 05:50:28;;;;;;;;;;;;;;;-144.99;nan;52415.47;5004460;28;19962;-71
2023/08/09 05:52:55;;;;;;;;;;;;;;;-144.99;nan;52411.41;5003064;28;20055;-71
2023/08/09 05:55:22;;;;;;;;;;;;;;;-144.99;nan;52419.56;5004535;28;19998;-71
2023/08/09 05:57:50;;;;;;;;;;;;;;;-144.99;nan;52452.16;5006667;28;19964;-71
2023/08/09 06:00:17;;;;;;;;;;;;;;;-144.99;nan;52407.31;5006934;28;19952;-71
2023/08/09 06:02:44;;;;;;;;;;;;;;;-144.99;nan;52417.53;5004973;28;20349;-73
2023/08/09 06:05:15;;;;;;;;;;;;;;;-144.99;nan;52415.47;5003157;28;19949;-72
2023/08/09 06:07:42;;;;;;;;;;;;;;;-144.99;nan;52395.09;5002593;28;19956;-71
2023/08/09 06:10:09;;;;;;;;;;;;;;;-144.99;nan;52393.06;5001797;28;19956;-70
2023/08/09 06:12:35;;;;;;;;;;;;;;;-144.99;nan;52431.78;5001392;28;20187;-72
2023/08/09 06:15:03;;;;;;;;;;;;;;;-144.99;nan;52415.47;5003377;28;20319;-71
2023/08/09 06:17:29;;;;;;;;;;;;;;;-144.99;nan;52419.56;5003425;28;19972;-73
2023/08/09 06:19:56;;;;;;;;;;;;;;;-144.99;nan;52391.03;5003042;28;20048;-71
2023/08/09 06:22:22;;;;;;;;;;;;;;;-144.99;nan;52388.97;5000050;28;20013;-72
2023/08/09 06:24:49;;;;;;;;;;;;;;;-144.99;nan;52399.19;5002598;28;20039;-73
2023/08/09 06:27:15;;;;;;;;;;;;;;;-144.99;nan;52444.03;5004110;28;19957;-72
2023/08/09 06:29:42;;;;;;;;;;;;;;;-144.99;nan;52399.19;5003196;28;20042;-71
2023/08/09 06:32:10;;;;;;;;;;;;;;;-144.99;nan;52370.63;5003951;28;20087;-72
2023/08/09 06:34:36;;;;;;;;;;;;;;;-144.99;nan;52427.72;5007498;28;20107;-70
2023/08/09 06:37:03;;;;;;;;;;;;;;;-144.99;nan;52401.22;5014682;28;20049;-71
2023/08/09 06:39:29;;;;;;;;;;;;;;;-144.99;nan;52354.34;5009632;28;19965;-71
2023/08/09 06:41:56;;;;;;;;;;;;;;;-144.99;nan;52413.44;5004445;28;19970;-70
2023/08/09 06:44:22;;;;;;;;;;;;;;;-144.99;nan;52356.38;5004529;28;20428;-71
2023/08/09 06:46:49;;;;;;;;;;;;;;;-144.99;nan;52380.84;5000998;28;20052;-69
2023/08/09 06:49:17;;;;;;;;;;;;;;;-144.99;nan;52393.06;5004938;28;20359;-71
2023/08/09 06:51:43;;;;;;;;;;;;;;;-144.99;nan;52366.56;5003438;28;20057;-69
2023/08/09 06:54:09;;;;;;;;;;;;;;;-144.99;nan;52395.09;5002762;28;19993;-70
2023/08/09 06:56:36;;;;;;;;;;;;;;;-144.99;nan;52358.41;5007044;28;20120;-70
2023/08/09 06:59:03;;;;;;;;;;;;;;;-144.99;nan;52374.72;5006099;28;19972;-71
2023/08/09 07:01:29;;;;;;;;;;;;;;;-144.99;nan;52403.25;5014992;28;20058;-70
2023/08/09 07:03:56;;;;;;;;;;;;;;;-144.99;nan;52382.88;5004719;28;19989;-70
2023/08/09 07:06:24;;;;;;;;;;;;;;;-144.99;nan;52431.78;5006099;28;19954;-71
2023/08/09 07:08:53;;;;;;;;;;;;;;;-144.99;nan;52395.09;5008040;28;20325;-70
2023/08/09 07:11:19;;;;;;;;;;;;;;;-144.99;nan;52372.69;5005784;28;19995;-70
2023/08/09 07:13:46;;;;;;;;;;;;;;;-144.99;nan;52407.31;5010733;28;20369;-71
2023/08/09 07:16:13;;;;;;;;;;;;;;;-144.99;nan;52378.78;5010091;28;20449;-71
2023/08/09 07:18:39;;;;;;;;;;;;;;;-144.99;nan;52382.88;5006909;28;20040;-69
2023/08/09 07:21:06;;;;;;;;;;;;;;;-144.99;nan;52425.66;5003451;28;19948;-73
2023/08/09 07:23:34;;;;;;;;;;;;;;;-144.99;nan;52354.34;5005570;28;19964;-70
2023/08/09 07:26:01;;;;;;;;;;;;;;;-144.99;nan;52407.31;5005831;28;20392;-70
2023/08/09 07:28:28;;;;;;;;;;;;;;;-144.99;nan;52374.72;5003941;28;20544;-70
2023/08/09 07:30:55;;;;;;;;;;;;;;;-144.99;nan;52374.72;5006700;28;20040;-69
2023/08/09 07:33:21;;;;;;;;;;;;;;;-144.99;nan;52366.56;5006554;28;19967;-70
2023/08/09 07:35:48;;;;;;;;;;;;;;;-144.99;nan;52407.31;5005420;28;20011;-70
2023/08/09 07:38:15;;;;;;;;;;;;;;;-144.99;nan;52366.56;5001991;28;19968;-70
2023/08/09 07:40:43;;;;;;;;;;;;;;;-144.99;nan;52399.19;4660564;28;10000176;-71
2023/08/09 07:43:09;;;;;;;;;;;;;;;-144.99;nan;52366.56;5005896;28;19975;-71
2023/08/09 07:45:36;;;;;;;;;;;;;;;-144.99;nan;52419.56;5009060;28;20000;-71
2023/08/09 07:48:02;;;;;;;;;;;;;;;-144.99;nan;52382.88;5003651;28;19993;-70
2023/08/09 07:50:29;;;;;;;;;;;;;;;-144.99;nan;52370.63;5009221;28;19961;-70
2023/08/09 07:52:55;;;;;;;;;;;;;;;-144.99;nan;52382.88;5008470;28;20064;-70
2023/08/09 07:55:22;;;;;;;;;;;;;;;-144.99;nan;52415.47;5004802;28;20012;-70
2023/08/09 07:57:50;;;;;;;;;;;;;;;-144.99;nan;52415.47;5004730;28;20076;-72
2023/08/09 08:00:17;;;;;;;;;;;;;;;-144.99;nan;52409.38;5008394;28;19955;-71
2023/08/09 08:02:44;;;;;;;;;;;;;;;-144.99;nan;52354.34;5003420;28;20109;-71
2023/08/09 08:05:11;;;;;;;;;;;;;;;-144.99;nan;52366.56;5001606;28;20047;-70
2023/08/09 08:07:38;;;;;;;;;;;;;;;-144.99;nan;52362.50;5004666;28;19954;-71
2023/08/09 08:10:08;;;;;;;;;;;;;;;-144.99;nan;52388.97;5012153;28;20028;-72
2023/08/09 08:12:34;;;;;;;;;;;;;;;-144.99;nan;52319.69;5009846;28;20459;-72
2023/08/09 08:15:03;;;;;;;;;;;;;;;-144.99;nan;52374.72;5013111;28;19955;-71
2023/08/09 08:17:30;;;;;;;;;;;;;;;-144.99;nan;52342.09;5021073;28;19943;-70
2023/08/09 08:19:56;;;;;;;;;;;;;;;-144.99;nan;52358.41;5012391;28;19958;-72
2023/08/09 08:22:23;;;;;;;;;;;;;;;-144.99;nan;52342.09;5009100;28;19975;-71
2023/08/09 08:24:50;;;;;;;;;;;;;;;-144.99;nan;52315.59;5008571;28;19946;-71
2023/08/09 08:27:16;;;;;;;;;;;;;;;-144.99;nan;52366.56;5006187;28;20403;-71
2023/08/09 08:29:43;;;;;;;;;;;;;;;-144.99;nan;52407.31;5008128;28;20320;-71
2023/08/09 08:32:11;;;;;;;;;;;;;;;-144.99;nan;52352.28;5004849;28;19973;-70
2023/08/09 08:34:37;;;;;;;;;;;;;;;-144.99;nan;52407.31;5008750;28;20322;-71
2023/08/09 08:37:06;;;;;;;;;;;;;;;-144.99;nan;52419.56;5002789;28;20349;-71
2023/08/09 08:39:35;;;;;;;;;;;;;;;-144.99;nan;52378.78;5003979;28;20447;-72
2023/08/09 08:42:02;;;;;;;;;;;;;;;-144.99;nan;52378.78;5005544;28;19973;-70
2023/08/09 08:44:29;;;;;;;;;;;;;;;-144.99;nan;52401.22;5006934;28;19948;-71
2023/08/09 08:46:56;;;;;;;;;;;;;;;-144.99;nan;52395.09;5003266;28;19948;-70
2023/08/09 08:49:25;;;;;;;;;;;;;;;-144.99;nan;52386.94;5005058;28;20070;-71
2023/08/09 08:51:55;;;;;;;;;;;;;;;-144.99;nan;52366.56;5003842;28;20013;-71
2023/08/09 08:54:22;;;;;;;;;;;;;;;-144.99;nan;52342.09;5003723;28;20004;-72
2023/08/09 08:56:49;;;;;;;;;;;;;;;-144.99;nan;52329.88;5005807;28;20721;-69
2023/08/09 08:59:16;;;;;;;;;;;;;;;-144.99;nan;52333.94;5003988;28;20023;-72
2023/08/09 09:01:43;;;;;;;;;;;;;;;-144.99;nan;52344.16;5007090;28;19967;-71
2023/08/09 09:04:10;;;;;;;;;;;;;;;-144.99;nan;52303.38;5006687;28;20421;-71
2023/08/09 09:06:38;;;;;;;;;;;;;;;-144.99;nan;52297.25;4989871;28;20047;-71
2023/08/09 09:09:10;;;;;;;;;;;;;;;-144.99;nan;52342.09;5008965;28;20365;-70
2023/08/09 09:11:36;;;;;;;;;;;;;;;-144.99;nan;52329.88;5006172;28;20486;-71
2023/08/09 09:14:10;;;;;;;;;;;;;;;-144.99;nan;52321.72;5010553;28;20013;-71
2023/08/09 09:16:36;;;;;;;;;;;;;;;-144.99;nan;52309.50;5009988;28;20010;-70
2023/08/09 09:19:03;;;;;;;;;;;;;;;-144.99;nan;52315.59;5005485;28;20016;-70
2023/08/09 09:21:32;;;;;;;;;;;;;;;-144.99;nan;52309.50;5006445;28;20471;-71
2023/08/09 09:24:02;;;;;;;;;;;;;;;-144.99;nan;52305.41;5009690;28;20493;-71
2023/08/09 09:26:29;;;;;;;;;;;;;;;-144.99;nan;52299.31;5006539;28;19947;-71
2023/08/09 09:28:55;;;;;;;;;;;;;;;-144.99;nan;52309.50;5004967;28;20336;-72
2023/08/09 09:31:22;;;;;;;;;;;;;;;-144.99;nan;52331.91;5000406;28;20334;-70
2023/08/09 09:33:50;;;;;;;;;;;;;;;-144.99;nan;52333.94;5008746;28;19953;-72
2023/08/09 09:36:17;;;;;;;;;;;;;;;-144.99;nan;52346.19;5003936;28;20056;-73
2023/08/09 09:38:44;;;;;;;;;;;;;;;-144.99;nan;52297.25;5004986;28;20453;-74
2023/08/09 09:41:15;;;;;;;;;;;;;;;-144.99;nan;52268.72;5004105;28;19966;-73
2023/08/09 09:43:42;;;;;;;;;;;;;;;-144.99;nan;52280.97;5007935;28;20523;-72
2023/08/09 09:46:27;;;;;;;;;;;;;;;-144.99;nan;52321.72;5008297;28;19998;-71
2023/08/09 09:48:59;;;;;;;;;;;;;;;-144.99;nan;52315.59;5006085;28;20000;-71
2023/08/09 09:51:26;;;;;;;;;;;;;;;-144.99;nan;52338.03;5004436;28;20103;-71
2023/08/09 09:53:53;;;;;;;;;;;;;;;-144.99;nan;52295.22;5008936;28;20310;-70
2023/08/09 09:56:21;;;;;;;;;;;;;;;-144.99;nan;52285.03;5004095;28;20035;-73
2023/08/09 09:58:47;;;;;;;;;;;;;;;-144.99;nan;52329.88;5006689;28;19967;-71
2023/08/09 10:01:18;;;;;;;;;;;;;;;-144.99;nan;52338.03;5005780;28;19961;-73
2023/08/09 10:03:45;;;;;;;;;;;;;;;-144.99;nan;52354.34;5008454;28;19992;-73
2023/08/09 10:06:15;;;;;;;;;;;;;;;-144.99;nan;52305.41;5008924;28;20466;-72
2023/08/09 10:08:42;;;;;;;;;;;;;;;-144.99;nan;52317.66;5006486;28;20444;-73
2023/08/09 10:11:09;;;;;;;;;;;;;;;-144.99;nan;52285.03;5007723;28;19973;-76
2023/08/09 10:13:39;;;;;;;;;;;;;;;-144.99;nan;52256.50;5004047;28;19948;-73
2023/08/09 10:16:07;;;;;;;;;;;;;;;-144.99;nan;52305.41;5006110;28;20043;-73
2023/08/09 10:18:36;;;;;;;;;;;;;;;-144.99;nan;52317.66;5008352;28;19943;-74
2023/08/09 10:21:04;;;;;;;;;;;;;;;-144.99;nan;52276.88;5005678;28;20476;-72
2023/08/09 10:23:31;;;;;;;;;;;;;;;-144.99;nan;52258.53;4985972;28;20432;-73
2023/08/09 10:25:58;;;;;;;;;;;;;;;-144.99;nan;52276.88;5004771;28;20253;-73
2023/08/09 10:28:52;;;;;;;;;;;;;;;-144.99;nan;52280.97;5006765;28;19948;-72
2023/08/09 10:31:36;;;;;;;;;;;;;;;-144.99;nan;52268.72;4948313;28;19964;-72
2023/08/09 10:34:14;;;;;;;;;;;;;;;-144.99;nan;52227.97;5005403;28;20069;-73
2023/08/09 10:36:40;;;;;;;;;;;;;;;-144.99;nan;52256.50;5005801;28;19985;-73
2023/08/09 10:39:09;;;;;;;;;;;;;;;-144.99;nan;52225.94;5010038;28;19963;-72
2023/08/09 10:41:35;;;;;;;;;;;;;;;-144.99;nan;52232.03;5009211;28;19964;-72
2023/08/09 10:44:02;;;;;;;;;;;;;;;-144.99;nan;52227.97;5009405;28;19998;-72
2023/08/09 10:46:33;;;;;;;;;;;;;;;-144.99;nan;52301.34;5009958;28;20355;-73
2023/08/09 10:49:00;;;;;;;;;;;;;;;-144.99;nan;52199.44;5007806;28;20002;-72
2023/08/09 10:51:28;;;;;;;;;;;;;;;-144.99;nan;52199.44;5005195;28;20070;-73
2023/08/09 10:53:58;;;;;;;;;;;;;;;-144.99;nan;52203.50;5007487;28;19997;-73
2023/08/09 10:56:31;;;;;;;;;;;;;;;-144.99;nan;52177.00;5008365;28;20311;-73
2023/08/09 10:59:04;;;;;;;;;;;;;;;-144.99;nan;52252.44;5009052;28;19967;-73
2023/08/09 11:01:31;;;;;;;;;;;;;;;-144.99;nan;52211.66;5009040;28;20257;-73
2023/08/09 11:03:59;;;;;;;;;;;;;;;-144.99;nan;52158.66;5006138;28;20005;-74
2023/08/09 11:06:37;;;;;;;;;;;;;;;-144.99;nan;52138.28;5008566;28;19956;-72
2023/08/09 11:09:08;;;;;;;;;;;;;;;-144.99;nan;52166.81;5009442;28;19941;-73
2023/08/09 11:11:35;;;;;;;;;;;;;;;-144.99;nan;52179.06;5005733;28;19987;-74
2023/08/09 11:14:02;;;;;;;;;;;;;;;-144.99;nan;52309.50;5009486;28;19942;-73
2023/08/09 11:16:29;;;;;;;;;;;;;;;-144.99;nan;52289.13;5010624;28;20464;-72
2023/08/09 11:19:03;;;;;;;;;;;;;;;-144.99;nan;52293.19;5010472;28;19971;-72
2023/08/09 11:21:39;;;;;;;;;;;;;;;-144.99;nan;52268.72;5008832;28;20224;-72
2023/08/09 11:24:07;;;;;;;;;;;;;;;-144.99;nan;52297.25;5006647;28;20015;-72
2023/08/09 11:26:33;;;;;;;;;;;;;;;-144.99;nan;52285.03;5005986;28;19949;-72
2023/08/09 11:29:01;;;;;;;;;;;;;;;-144.99;nan;52268.72;5009174;28;20015;-74
2023/08/09 11:31:28;;;;;;;;;;;;;;;-144.99;nan;52130.13;5008131;28;19994;-73
2023/08/09 11:33:57;;;;;;;;;;;;;;;-144.99;nan;52246.31;5007625;28;19951;-73
2023/08/09 11:36:27;;;;;;;;;;;;;;;-144.99;nan;52154.59;5007199;28;20263;-71
2023/08/09 11:38:54;;;;;;;;;;;;;;;-144.99;nan;52232.03;5010151;28;19944;-72
2023/08/09 11:41:21;;;;;;;;;;;;;;;-144.99;nan;52305.41;5014216;28;20314;-72
2023/08/09 11:43:48;;;;;;;;;;;;;;;-144.99;nan;52313.56;5009234;28;19958;-73
2023/08/09 11:46:14;;;;;;;;;;;;;;;-144.99;nan;52333.94;5006441;28;20002;-73
2023/08/09 11:48:43;;;;;;;;;;;;;;;-144.99;nan;52346.19;5004401;28;20034;-74
2023/08/09 11:51:12;;;;;;;;;;;;;;;-144.99;nan;52378.78;5009765;28;20561;-72
2023/08/09 11:53:39;;;;;;;;;;;;;;;-144.99;nan;52397.13;5010196;28;20041;-74
2023/08/09 11:56:08;;;;;;;;;;;;;;;-144.99;nan;52382.88;5004180;28;19944;-70
2023/08/09 11:58:36;;;;;;;;;;;;;;;-144.99;nan;52439.94;5010428;28;19963;-72
2023/08/09 12:01:12;;;;;;;;;;;;;;;-144.99;nan;52382.88;5007806;28;20350;-73
2023/08/09 12:03:38;;;;;;;;;;;;;;;-144.99;nan;52391.03;5005123;28;20498;-72
2023/08/09 12:06:05;;;;;;;;;;;;;;;-144.99;nan;52366.56;5007226;28;19948;-70
2023/08/09 12:08:33;;;;;;;;;;;;;;;-144.99;nan;52301.34;5007040;28;20035;-71
2023/08/09 12:10:59;;;;;;;;;;;;;;;-144.99;nan;52215.75;5003403;28;20037;-71
2023/08/09 12:13:27;;;;;;;;;;;;;;;-144.99;nan;52313.56;4986874;28;20026;-72
2023/08/09 12:15:54;;;;;;;;;;;;;;;-144.99;nan;52327.84;5002249;28;20057;-72
2023/08/09 12:18:20;;;;;;;;;;;;;;;-144.99;nan;52346.19;5005488;28;19984;-73
2023/08/09 12:20:47;;;;;;;;;;;;;;;-144.99;nan;52370.63;5004664;28;20056;-71
2023/08/09 12:23:13;;;;;;;;;;;;;;;-144.99;nan;52315.59;5001516;28;19962;-71
2023/08/09 12:25:40;;;;;;;;;;;;;;;-144.99;nan;52223.88;5005431;28;20386;-71
2023/08/09 12:28:07;;;;;;;;;;;;;;;-144.99;nan;52262.63;5008288;28;20677;-70
2023/08/09 12:30:35;;;;;;;;;;;;;;;-144.99;nan;52254.47;5006428;28;19953;-71
2023/08/09 12:33:02;;;;;;;;;;;;;;;-144.99;nan;52252.44;5008228;28;19975;-71
2023/08/09 12:35:28;;;;;;;;;;;;;;;-144.99;nan;52250.38;5009049;28;19949;-72
2023/08/09 12:37:54;;;;;;;;;;;;;;;-144.99;nan;52338.03;5015867;28;19950;-70
2023/08/09 12:40:21;;;;;;;;;;;;;;;-144.99;nan;52293.19;5015488;28;19966;-71
2023/08/09 12:42:47;;;;;;;;;;;;;;;-144.99;nan;52256.50;5018100;28;19997;-70
2023/08/09 12:45:14;;;;;;;;;;;;;;;-144.99;nan;52370.63;5012318;28;19987;-72